sensor_id;sensor_type;location;lat;lon;timestamp;pressure;altitude;pressure_sealevel;temperature;humidity
50518;BME280;37075;44.084;2.962;2023-09-19T00:00:42;98048.94;;;18.65;55.20
50518;BME280;37075;44.084;2.962;2023-09-19T00:03:30;98047.63;;;18.56;55.04
50518;BME280;37075;44.084;2.962;2023-09-19T00:06:16;98051.78;;;18.42;55.64
50518;BME280;37075;44.084;2.962;2023-09-19T00:09:02;98054.09;;;18.37;55.87
50518;BME280;37075;44.084;2.962;2023-09-19T00:11:49;98057.16;;;18.28;55.96
50518;BME280;37075;44.084;2.962;2023-09-19T00:14:36;98058.31;;;18.24;56.42
50518;BME280;37075;44.084;2.962;2023-09-19T00:17:22;98044.81;;;18.18;56.51
50518;BME280;37075;44.084;2.962;2023-09-19T00:20:11;98038.41;;;18.11;56.70
50518;BME280;37075;44.084;2.962;2023-09-19T00:22:59;98040.75;;;18.09;56.72
50518;BME280;37075;44.084;2.962;2023-09-19T00:25:53;98040.72;;;18.05;56.61
50518;BME280;37075;44.084;2.962;2023-09-19T00:28:41;98034.34;;;18.01;56.94
50518;BME280;37075;44.084;2.962;2023-09-19T00:31:28;98029.97;;;17.97;56.90
50518;BME280;37075;44.084;2.962;2023-09-19T00:34:14;98033.41;;;17.90;57.13
50518;BME280;37075;44.084;2.962;2023-09-19T00:37:04;98032.91;;;17.81;57.01
50518;BME280;37075;44.084;2.962;2023-09-19T00:39:50;98034.00;;;17.76;57.17
50518;BME280;37075;44.084;2.962;2023-09-19T00:42:36;98034.34;;;17.71;57.05
50518;BME280;37075;44.084;2.962;2023-09-19T00:45:23;98037.38;;;17.66;57.41
50518;BME280;37075;44.084;2.962;2023-09-19T00:48:09;98032.19;;;17.61;57.57
50518;BME280;37075;44.084;2.962;2023-09-19T00:50:57;98030.53;;;17.56;57.84
50518;BME280;37075;44.084;2.962;2023-09-19T00:53:46;98038.72;;;17.49;57.78
50518;BME280;37075;44.084;2.962;2023-09-19T00:56:32;98035.13;;;17.45;57.38
50518;BME280;37075;44.084;2.962;2023-09-19T00:59:18;98031.13;;;17.43;58.12
50518;BME280;37075;44.084;2.962;2023-09-19T01:02:07;98035.00;;;17.38;58.66
50518;BME280;37075;44.084;2.962;2023-09-19T01:04:54;98032.97;;;17.35;59.06
50518;BME280;37075;44.084;2.962;2023-09-19T01:07:41;98029.41;;;17.35;58.99
50518;BME280;37075;44.084;2.962;2023-09-19T01:10:30;98032.19;;;17.35;59.25
50518;BME280;37075;44.084;2.962;2023-09-19T01:13:22;98023.84;;;17.31;59.64
50518;BME280;37075;44.084;2.962;2023-09-19T01:16:20;98037.22;;;17.29;59.48
50518;BME280;37075;44.084;2.962;2023-09-19T01:19:27;98035.56;;;17.24;59.57
50518;BME280;37075;44.084;2.962;2023-09-19T01:22:25;98041.41;;;17.19;59.77
50518;BME280;37075;44.084;2.962;2023-09-19T01:25:52;98031.47;;;17.15;59.93
50518;BME280;37075;44.084;2.962;2023-09-19T01:28:52;98038.50;;;17.12;60.01
50518;BME280;37075;44.084;2.962;2023-09-19T01:31:44;98043.22;;;17.12;60.53
50518;BME280;37075;44.084;2.962;2023-09-19T01:34:44;98040.47;;;17.12;60.56
50518;BME280;37075;44.084;2.962;2023-09-19T01:37:32;98035.38;;;17.14;61.01
50518;BME280;37075;44.084;2.962;2023-09-19T01:40:19;98034.59;;;17.13;61.36
50518;BME280;37075;44.084;2.962;2023-09-19T01:43:13;98037.78;;;17.15;61.62
50518;BME280;37075;44.084;2.962;2023-09-19T01:46:06;98037.41;;;17.17;61.86
50518;BME280;37075;44.084;2.962;2023-09-19T01:49:04;98035.44;;;17.17;61.95
50518;BME280;37075;44.084;2.962;2023-09-19T01:51:56;98031.97;;;17.20;62.02
50518;BME280;37075;44.084;2.962;2023-09-19T01:54:50;98030.81;;;17.21;62.00
50518;BME280;37075;44.084;2.962;2023-09-19T01:57:42;98026.47;;;17.20;62.23
50518;BME280;37075;44.084;2.962;2023-09-19T02:00:30;98018.19;;;17.20;62.21
50518;BME280;37075;44.084;2.962;2023-09-19T02:03:20;98025.28;;;17.21;62.21
50518;BME280;37075;44.084;2.962;2023-09-19T02:06:13;98031.19;;;17.20;62.57
50518;BME280;37075;44.084;2.962;2023-09-19T02:09:00;98036.69;;;17.20;62.90
50518;BME280;37075;44.084;2.962;2023-09-19T02:11:47;98040.63;;;17.19;62.96
50518;BME280;37075;44.084;2.962;2023-09-19T02:14:34;98041.78;;;17.18;62.98
50518;BME280;37075;44.084;2.962;2023-09-19T02:17:21;98029.59;;;17.19;63.00
50518;BME280;37075;44.084;2.962;2023-09-19T02:20:11;98035.44;;;17.17;62.82
50518;BME280;37075;44.084;2.962;2023-09-19T02:23:01;98036.59;;;17.16;63.33
50518;BME280;37075;44.084;2.962;2023-09-19T02:25:52;98031.78;;;17.10;63.66
50518;BME280;37075;44.084;2.962;2023-09-19T02:28:39;98032.19;;;17.12;63.76
50518;BME280;37075;44.084;2.962;2023-09-19T02:31:27;98042.06;;;17.13;63.81
50518;BME280;37075;44.084;2.962;2023-09-19T02:34:14;98031.47;;;17.15;63.78
50518;BME280;37075;44.084;2.962;2023-09-19T02:37:01;98037.06;;;17.18;64.10
50518;BME280;37075;44.084;2.962;2023-09-19T02:39:51;98029.22;;;17.20;64.13
50518;BME280;37075;44.084;2.962;2023-09-19T02:42:37;98022.97;;;17.23;64.20
50518;BME280;37075;44.084;2.962;2023-09-19T02:45:23;98014.31;;;17.25;64.14
50518;BME280;37075;44.084;2.962;2023-09-19T02:48:10;98024.56;;;17.24;64.23
50518;BME280;37075;44.084;2.962;2023-09-19T02:50:56;98023.75;;;17.24;64.21
50518;BME280;37075;44.084;2.962;2023-09-19T02:53:42;98021.38;;;17.22;64.65
50518;BME280;37075;44.084;2.962;2023-09-19T02:56:30;98015.06;;;17.22;64.91
50518;BME280;37075;44.084;2.962;2023-09-19T02:59:17;98014.69;;;17.23;64.97
50518;BME280;37075;44.084;2.962;2023-09-19T03:02:04;98015.06;;;17.22;64.57
50518;BME280;37075;44.084;2.962;2023-09-19T03:04:50;98011.13;;;17.23;64.71
50518;BME280;37075;44.084;2.962;2023-09-19T03:07:37;98002.50;;;17.24;65.08
50518;BME280;37075;44.084;2.962;2023-09-19T03:10:23;98006.47;;;17.27;64.91
50518;BME280;37075;44.084;2.962;2023-09-19T03:13:12;98004.13;;;17.29;64.90
50518;BME280;37075;44.084;2.962;2023-09-19T03:15:58;98010.06;;;17.31;65.05
50518;BME280;37075;44.084;2.962;2023-09-19T03:18:46;98009.28;;;17.31;64.79
50518;BME280;37075;44.084;2.962;2023-09-19T03:21:34;98003.44;;;17.36;64.84
50518;BME280;37075;44.084;2.962;2023-09-19T03:24:20;97997.56;;;17.37;64.88
50518;BME280;37075;44.084;2.962;2023-09-19T03:27:09;98002.31;;;17.40;64.92
50518;BME280;37075;44.084;2.962;2023-09-19T03:29:57;97997.59;;;17.41;65.00
50518;BME280;37075;44.084;2.962;2023-09-19T03:32:44;97991.38;;;17.44;65.07
50518;BME280;37075;44.084;2.962;2023-09-19T03:35:31;98000.00;;;17.42;64.93
50518;BME280;37075;44.084;2.962;2023-09-19T03:38:17;97994.56;;;17.46;64.99
50518;BME280;37075;44.084;2.962;2023-09-19T03:41:04;97994.97;;;17.48;64.86
50518;BME280;37075;44.084;2.962;2023-09-19T03:43:52;97996.19;;;17.50;65.15
50518;BME280;37075;44.084;2.962;2023-09-19T03:46:41;97992.25;;;17.51;65.15
50518;BME280;37075;44.084;2.962;2023-09-19T03:49:27;97991.09;;;17.52;65.21
50518;BME280;37075;44.084;2.962;2023-09-19T03:52:13;97989.13;;;17.53;65.02
50518;BME280;37075;44.084;2.962;2023-09-19T03:55:00;97993.47;;;17.54;65.10
50518;BME280;37075;44.084;2.962;2023-09-19T03:57:48;97987.97;;;17.54;65.11
50518;BME280;37075;44.084;2.962;2023-09-19T04:00:35;97985.19;;;17.54;65.28
50518;BME280;37075;44.084;2.962;2023-09-19T04:03:22;97993.47;;;17.54;65.47
50518;BME280;37075;44.084;2.962;2023-09-19T04:06:09;97993.47;;;17.54;65.18
50518;BME280;37075;44.084;2.962;2023-09-19T04:08:55;97998.56;;;17.52;65.18
50518;BME280;37075;44.084;2.962;2023-09-19T04:11:42;97996.56;;;17.49;65.22
50518;BME280;37075;44.084;2.962;2023-09-19T04:14:28;97997.72;;;17.48;65.21
50518;BME280;37075;44.084;2.962;2023-09-19T04:17:14;97997.31;;;17.46;65.42
50518;BME280;37075;44.084;2.962;2023-09-19T04:20:02;97995.34;;;17.46;65.66
50518;BME280;37075;44.084;2.962;2023-09-19T04:22:51;98002.03;;;17.45;65.54
50518;BME280;37075;44.084;2.962;2023-09-19T04:25:40;98004.00;;;17.45;65.43
50518;BME280;37075;44.084;2.962;2023-09-19T04:28:26;98002.41;;;17.44;65.47
50518;BME280;37075;44.084;2.962;2023-09-19T04:31:12;98002.75;;;17.42;65.48
50518;BME280;37075;44.084;2.962;2023-09-19T04:33:58;98001.94;;;17.42;65.63
50518;BME280;37075;44.084;2.962;2023-09-19T04:36:51;97993.69;;;17.42;65.56
50518;BME280;37075;44.084;2.962;2023-09-19T04:39:37;98003.50;;;17.39;65.55
50518;BME280;37075;44.084;2.962;2023-09-19T04:42:24;98003.50;;;17.39;65.49
50518;BME280;37075;44.084;2.962;2023-09-19T04:45:10;98003.88;;;17.38;65.37
50518;BME280;37075;44.084;2.962;2023-09-19T04:47:56;98002.66;;;17.35;65.01
50518;BME280;37075;44.084;2.962;2023-09-19T04:50:42;97998.25;;;17.31;64.83
50518;BME280;37075;44.084;2.962;2023-09-19T04:53:30;98000.13;;;17.23;64.82
50518;BME280;37075;44.084;2.962;2023-09-19T04:56:16;98009.50;;;17.18;65.00
50518;BME280;37075;44.084;2.962;2023-09-19T04:59:03;98007.44;;;17.15;65.34
50518;BME280;37075;44.084;2.962;2023-09-19T05:01:49;98005.88;;;17.14;65.42
50518;BME280;37075;44.084;2.962;2023-09-19T05:04:36;98005.81;;;17.11;65.40
50518;BME280;37075;44.084;2.962;2023-09-19T05:07:23;98010.09;;;17.08;65.25
50518;BME280;37075;44.084;2.962;2023-09-19T05:10:12;98011.63;;;17.06;65.60
50518;BME280;37075;44.084;2.962;2023-09-19T05:12:58;98021.81;;;17.02;65.89
50518;BME280;37075;44.084;2.962;2023-09-19T05:15:45;98016.31;;;17.02;66.10
50518;BME280;37075;44.084;2.962;2023-09-19T05:18:31;98022.25;;;17.04;66.05
50518;BME280;37075;44.084;2.962;2023-09-19T05:21:17;98021.06;;;17.05;66.10
50518;BME280;37075;44.084;2.962;2023-09-19T05:24:04;98021.88;;;17.05;66.15
50518;BME280;37075;44.084;2.962;2023-09-19T05:26:52;98028.97;;;17.06;66.41
50518;BME280;37075;44.084;2.962;2023-09-19T05:29:40;98038.41;;;17.05;66.31
50518;BME280;37075;44.084;2.962;2023-09-19T05:32:26;98040.38;;;17.05;66.31
50518;BME280;37075;44.084;2.962;2023-09-19T05:35:12;98032.47;;;17.03;66.17
50518;BME280;37075;44.084;2.962;2023-09-19T05:37:58;98044.66;;;17.02;66.08
50518;BME280;37075;44.084;2.962;2023-09-19T05:40:45;98051.31;;;17.01;66.27
50518;BME280;37075;44.084;2.962;2023-09-19T05:43:32;98055.25;;;17.00;66.61
50518;BME280;37075;44.084;2.962;2023-09-19T05:46:19;98056.84;;;17.01;66.82
50518;BME280;37075;44.084;2.962;2023-09-19T05:49:05;98061.56;;;17.01;67.06
50518;BME280;37075;44.084;2.962;2023-09-19T05:51:51;98046.97;;;17.00;67.37
50518;BME280;37075;44.084;2.962;2023-09-19T05:54:39;98060.03;;;17.03;67.41
50518;BME280;37075;44.084;2.962;2023-09-19T05:57:27;98058.13;;;17.07;67.63
50518;BME280;37075;44.084;2.962;2023-09-19T06:00:15;98057.38;;;17.10;67.62
50518;BME280;37075;44.084;2.962;2023-09-19T06:03:03;98060.19;;;17.14;67.46
50518;BME280;37075;44.084;2.962;2023-09-19T06:05:48;98054.41;;;17.19;67.64
50518;BME280;37075;44.084;2.962;2023-09-19T06:08:36;98057.19;;;17.22;67.75
50518;BME280;37075;44.084;2.962;2023-09-19T06:11:22;98053.75;;;17.29;67.94
50518;BME280;37075;44.084;2.962;2023-09-19T06:14:11;98060.91;;;17.34;68.00
50518;BME280;37075;44.084;2.962;2023-09-19T06:16:58;98051.16;;;17.40;67.99
50518;BME280;37075;44.084;2.962;2023-09-19T06:19:45;98052.47;;;17.46;67.95
50518;BME280;37075;44.084;2.962;2023-09-19T06:22:32;98048.22;;;17.52;68.03
50518;BME280;37075;44.084;2.962;2023-09-19T06:25:19;98042.75;;;17.55;68.03
50518;BME280;37075;44.084;2.962;2023-09-19T06:28:06;98043.59;;;17.60;68.12
50518;BME280;37075;44.084;2.962;2023-09-19T06:30:56;98045.56;;;17.59;68.67
50518;BME280;37075;44.084;2.962;2023-09-19T06:33:44;98046.41;;;17.63;68.44
50518;BME280;37075;44.084;2.962;2023-09-19T06:36:30;98042.47;;;17.64;68.27
50518;BME280;37075;44.084;2.962;2023-09-19T06:39:16;98039.88;;;17.71;68.60
50518;BME280;37075;44.084;2.962;2023-09-19T06:42:03;98038.75;;;17.76;68.60
50518;BME280;37075;44.084;2.962;2023-09-19T06:44:50;98039.63;;;17.83;68.78
50518;BME280;37075;44.084;2.962;2023-09-19T06:47:37;98044.06;;;17.92;68.37
50518;BME280;37075;44.084;2.962;2023-09-19T06:50:26;98037.50;;;18.00;68.37
50518;BME280;37075;44.084;2.962;2023-09-19T06:53:12;98040.75;;;18.09;68.41
50518;BME280;37075;44.084;2.962;2023-09-19T06:55:58;98041.59;;;18.13;68.11
50518;BME280;37075;44.084;2.962;2023-09-19T06:58:44;98044.75;;;18.15;67.68
50518;BME280;37075;44.084;2.962;2023-09-19T07:01:30;98035.31;;;18.16;67.29
50518;BME280;37075;44.084;2.962;2023-09-19T07:04:16;98039.66;;;18.17;67.25
50518;BME280;37075;44.084;2.962;2023-09-19T07:07:05;98045.56;;;18.15;67.22
50518;BME280;37075;44.084;2.962;2023-09-19T07:09:53;98044.38;;;18.16;67.35
50518;BME280;37075;44.084;2.962;2023-09-19T07:12:39;98053.47;;;18.17;67.44
50518;BME280;37075;44.084;2.962;2023-09-19T07:15:27;98055.84;;;18.18;67.64
50518;BME280;37075;44.084;2.962;2023-09-19T07:18:16;98048.34;;;18.19;67.61
50518;BME280;37075;44.084;2.962;2023-09-19T07:21:03;98047.25;;;18.24;67.44
50518;BME280;37075;44.084;2.962;2023-09-19T07:23:55;98041.41;;;18.29;67.72
50518;BME280;37075;44.084;2.962;2023-09-19T07:26:41;98044.63;;;18.34;67.63
50518;BME280;37075;44.084;2.962;2023-09-19T07:29:26;98041.13;;;18.41;67.30
50518;BME280;37075;44.084;2.962;2023-09-19T07:32:12;98033.28;;;18.46;67.58
50518;BME280;37075;44.084;2.962;2023-09-19T07:34:59;98024.69;;;18.52;67.45
50518;BME280;37075;44.084;2.962;2023-09-19T07:37:45;98032.25;;;18.58;67.18
50518;BME280;37075;44.084;2.962;2023-09-19T07:40:35;98027.22;;;18.64;67.36
50518;BME280;37075;44.084;2.962;2023-09-19T07:43:21;98026.53;;;18.74;67.40
50518;BME280;37075;44.084;2.962;2023-09-19T07:46:07;98029.00;;;18.86;66.82
50518;BME280;37075;44.084;2.962;2023-09-19T07:48:54;98029.16;;;19.00;66.58
50518;BME280;37075;44.084;2.962;2023-09-19T07:51:39;98038.31;;;19.12;65.54
50518;BME280;37075;44.084;2.962;2023-09-19T07:54:26;98034.88;;;19.25;65.01
50518;BME280;37075;44.084;2.962;2023-09-19T07:57:16;98024.34;;;19.41;64.47
50518;BME280;37075;44.084;2.962;2023-09-19T08:00:03;98031.97;;;19.55;63.39
50518;BME280;37075;44.084;2.962;2023-09-19T08:02:59;98041.53;;;19.68;62.24
50518;BME280;37075;44.084;2.962;2023-09-19T08:05:45;98024.25;;;19.82;61.49
50518;BME280;37075;44.084;2.962;2023-09-19T08:08:32;98028.25;;;19.95;60.60
50518;BME280;37075;44.084;2.962;2023-09-19T08:11:24;98042.56;;;20.05;59.00
50518;BME280;37075;44.084;2.962;2023-09-19T08:14:17;98037.84;;;20.12;57.80
50518;BME280;37075;44.084;2.962;2023-09-19T08:17:03;98041.41;;;20.16;55.79
50518;BME280;37075;44.084;2.962;2023-09-19T08:19:49;98044.19;;;20.20;54.82
50518;BME280;37075;44.084;2.962;2023-09-19T08:22:40;98044.97;;;20.20;53.98
50518;BME280;37075;44.084;2.962;2023-09-19T08:25:27;98054.47;;;20.19;54.07
50518;BME280;37075;44.084;2.962;2023-09-19T08:28:13;98053.28;;;20.20;53.35
50518;BME280;37075;44.084;2.962;2023-09-19T08:31:05;98053.31;;;20.24;53.05
50518;BME280;37075;44.084;2.962;2023-09-19T08:33:51;98053.38;;;20.38;52.68
50518;BME280;37075;44.084;2.962;2023-09-19T08:36:43;98055.06;;;20.60;52.80
50518;BME280;37075;44.084;2.962;2023-09-19T08:39:30;98057.47;;;20.80;52.31
50518;BME280;37075;44.084;2.962;2023-09-19T08:42:18;98055.53;;;20.98;51.96
50518;BME280;37075;44.084;2.962;2023-09-19T08:45:06;98055.94;;;21.11;51.90
50518;BME280;37075;44.084;2.962;2023-09-19T08:48:00;98056.38;;;21.23;51.27
50518;BME280;37075;44.084;2.962;2023-09-19T08:50:56;98060.34;;;21.26;50.52
50518;BME280;37075;44.084;2.962;2023-09-19T08:53:52;98060.31;;;21.19;49.70
50518;BME280;37075;44.084;2.962;2023-09-19T08:56:41;98049.63;;;21.10;49.83
50518;BME280;37075;44.084;2.962;2023-09-19T08:59:29;98062.66;;;21.03;49.19
50518;BME280;37075;44.084;2.962;2023-09-19T09:02:16;98059.09;;;20.99;49.17
50518;BME280;37075;44.084;2.962;2023-09-19T09:05:07;98048.00;;;21.06;49.10
50518;BME280;37075;44.084;2.962;2023-09-19T09:07:54;98058.72;;;21.21;49.00
50518;BME280;37075;44.084;2.962;2023-09-19T09:10:41;98052.81;;;21.30;48.96
50518;BME280;37075;44.084;2.962;2023-09-19T09:13:30;98054.41;;;21.38;49.05
50518;BME280;37075;44.084;2.962;2023-09-19T09:16:16;98059.56;;;21.43;48.60
50518;BME280;37075;44.084;2.962;2023-09-19T09:19:04;98064.28;;;21.50;48.15
50518;BME280;37075;44.084;2.962;2023-09-19T09:21:52;98056.34;;;21.59;47.51
50518;BME280;37075;44.084;2.962;2023-09-19T09:24:51;98055.53;;;21.76;46.74
50518;BME280;37075;44.084;2.962;2023-09-19T09:27:40;98061.84;;;21.95;46.71
50518;BME280;37075;44.084;2.962;2023-09-19T09:30:34;98059.47;;;22.07;46.56
50518;BME280;37075;44.084;2.962;2023-09-19T09:33:21;98052.31;;;22.17;45.98
50518;BME280;37075;44.084;2.962;2023-09-19T09:36:10;98058.66;;;22.18;45.75
50518;BME280;37075;44.084;2.962;2023-09-19T09:38:59;98058.66;;;22.18;45.47
50518;BME280;37075;44.084;2.962;2023-09-19T09:42:03;98058.63;;;22.25;45.03
50518;BME280;37075;44.084;2.962;2023-09-19T09:45:12;98055.06;;;22.24;44.43
50518;BME280;37075;44.084;2.962;2023-09-19T09:47:59;98053.84;;;22.25;44.96
50518;BME280;37075;44.084;2.962;2023-09-19T09:50:48;98044.31;;;22.26;44.66
50518;BME280;37075;44.084;2.962;2023-09-19T09:53:41;98050.25;;;22.39;44.62
50518;BME280;37075;44.084;2.962;2023-09-19T09:56:32;98048.16;;;22.54;44.84
50518;BME280;37075;44.084;2.962;2023-09-19T09:59:19;98039.75;;;22.68;44.20
50518;BME280;37075;44.084;2.962;2023-09-19T10:02:08;98038.50;;;22.80;43.96
50518;BME280;37075;44.084;2.962;2023-09-19T10:04:58;98045.63;;;22.81;43.47
50518;BME280;37075;44.084;2.962;2023-09-19T10:07:54;98041.72;;;22.74;42.62
50518;BME280;37075;44.084;2.962;2023-09-19T10:10:45;98034.59;;;22.70;42.85
50518;BME280;37075;44.084;2.962;2023-09-19T10:13:44;98039.34;;;22.69;42.40
50518;BME280;37075;44.084;2.962;2023-09-19T10:16:32;98040.88;;;22.77;42.80
50518;BME280;37075;44.084;2.962;2023-09-19T10:19:23;98031.69;;;22.95;43.16
50518;BME280;37075;44.084;2.962;2023-09-19T10:22:15;98041.13;;;23.04;41.83
50518;BME280;37075;44.084;2.962;2023-09-19T10:25:05;98028.75;;;23.16;41.62
50518;BME280;37075;44.084;2.962;2023-09-19T10:27:54;98035.75;;;23.31;41.70
50518;BME280;37075;44.084;2.962;2023-09-19T10:30:46;98032.91;;;23.42;40.98
50518;BME280;37075;44.084;2.962;2023-09-19T10:33:36;98034.31;;;23.61;41.15
50518;BME280;37075;44.084;2.962;2023-09-19T10:36:24;98036.25;;;23.67;40.85
50518;BME280;37075;44.084;2.962;2023-09-19T10:39:15;98050.66;;;23.59;40.15
50518;BME280;37075;44.084;2.962;2023-09-19T10:42:14;98043.63;;;23.44;40.24
50518;BME280;37075;44.084;2.962;2023-09-19T10:45:04;98035.38;;;23.29;40.35
50518;BME280;37075;44.084;2.962;2023-09-19T10:47:59;98031.88;;;23.22;40.60
50518;BME280;37075;44.084;2.962;2023-09-19T10:50:51;98028.28;;;23.25;40.94
50518;BME280;37075;44.084;2.962;2023-09-19T10:53:43;98025.72;;;23.45;41.06
50518;BME280;37075;44.084;2.962;2023-09-19T10:56:36;98027.59;;;23.58;40.81
50518;BME280;37075;44.084;2.962;2023-09-19T10:59:23;98030.00;;;23.53;40.97
50518;BME280;37075;44.084;2.962;2023-09-19T11:02:17;98031.53;;;23.61;40.66
50518;BME280;37075;44.084;2.962;2023-09-19T11:05:13;98028.28;;;23.70;40.46
50518;BME280;37075;44.084;2.962;2023-09-19T11:07:59;98016.63;;;23.82;40.85
50518;BME280;37075;44.084;2.962;2023-09-19T11:10:50;98017.00;;;23.84;39.89
50518;BME280;37075;44.084;2.962;2023-09-19T11:13:37;98016.91;;;23.91;39.15
50518;BME280;37075;44.084;2.962;2023-09-19T11:16:25;98012.13;;;23.91;39.41
50518;BME280;37075;44.084;2.962;2023-09-19T11:19:11;98007.72;;;23.94;38.77
50518;BME280;37075;44.084;2.962;2023-09-19T11:21:59;98004.03;;;24.04;39.04
50518;BME280;37075;44.084;2.962;2023-09-19T11:24:45;98003.09;;;24.14;38.66
50518;BME280;37075;44.084;2.962;2023-09-19T11:27:31;98003.44;;;24.20;38.28
50518;BME280;37075;44.084;2.962;2023-09-19T11:30:26;97999.78;;;24.26;37.99
50518;BME280;37075;44.084;2.962;2023-09-19T11:33:16;97990.19;;;24.31;38.27
50518;BME280;37075;44.084;2.962;2023-09-19T11:36:09;97984.94;;;24.37;39.08
50518;BME280;37075;44.084;2.962;2023-09-19T11:38:59;97984.34;;;24.52;39.43
50518;BME280;37075;44.084;2.962;2023-09-19T11:41:53;97980.59;;;24.63;38.62
50518;BME280;37075;44.084;2.962;2023-09-19T11:44:41;97980.03;;;24.75;37.58
50518;BME280;37075;44.084;2.962;2023-09-19T11:47:27;97977.84;;;24.86;38.38
50518;BME280;37075;44.084;2.962;2023-09-19T11:50:17;97969.22;;;25.04;39.06
50518;BME280;37075;44.084;2.962;2023-09-19T11:53:05;97967.75;;;25.19;38.29
50518;BME280;37075;44.084;2.962;2023-09-19T11:55:53;97963.75;;;25.20;36.76
50518;BME280;37075;44.084;2.962;2023-09-19T11:58:41;97970.63;;;25.15;37.07
50518;BME280;37075;44.084;2.962;2023-09-19T12:01:30;97952.91;;;25.02;36.96
50518;BME280;37075;44.084;2.962;2023-09-19T12:04:18;97953.81;;;24.92;36.61
50518;BME280;37075;44.084;2.962;2023-09-19T12:07:11;97946.97;;;24.97;37.16
50518;BME280;37075;44.084;2.962;2023-09-19T12:10:03;97947.63;;;25.08;36.80
50518;BME280;37075;44.084;2.962;2023-09-19T12:12:52;97943.75;;;25.25;37.20
50518;BME280;37075;44.084;2.962;2023-09-19T12:15:41;97933.53;;;25.38;35.91
50518;BME280;37075;44.084;2.962;2023-09-19T12:18:30;97933.75;;;25.47;35.70
50518;BME280;37075;44.084;2.962;2023-09-19T12:21:23;97928.41;;;25.57;35.66
50518;BME280;37075;44.084;2.962;2023-09-19T12:24:12;97925.03;;;25.65;35.60
50518;BME280;37075;44.084;2.962;2023-09-19T12:27:02;97917.69;;;25.75;35.93
50518;BME280;37075;44.084;2.962;2023-09-19T12:29:51;97922.41;;;25.58;35.08
50518;BME280;37075;44.084;2.962;2023-09-19T12:32:40;97916.09;;;25.54;35.24
50518;BME280;37075;44.084;2.962;2023-09-19T12:35:27;97912.56;;;25.50;35.24
50518;BME280;37075;44.084;2.962;2023-09-19T12:38:23;97907.72;;;25.54;34.76
50518;BME280;37075;44.084;2.962;2023-09-19T12:41:09;97914.88;;;25.55;35.00
50518;BME280;37075;44.084;2.962;2023-09-19T12:43:56;97901.38;;;25.50;34.22
50518;BME280;37075;44.084;2.962;2023-09-19T12:46:44;97898.19;;;25.51;34.87
50518;BME280;37075;44.084;2.962;2023-09-19T12:49:30;97890.81;;;25.61;35.06
50518;BME280;37075;44.084;2.962;2023-09-19T12:52:16;97896.19;;;25.72;35.52
50518;BME280;37075;44.084;2.962;2023-09-19T12:55:04;97889.03;;;25.91;34.78
50518;BME280;37075;44.084;2.962;2023-09-19T12:57:55;97890.66;;;26.08;34.99
50518;BME280;37075;44.084;2.962;2023-09-19T13:00:42;97884.81;;;26.19;34.48
50518;BME280;37075;44.084;2.962;2023-09-19T13:03:30;97880.25;;;26.45;34.60
50518;BME280;37075;44.084;2.962;2023-09-19T13:06:35;97891.28;;;26.52;33.15
50518;BME280;37075;44.084;2.962;2023-09-19T13:09:23;97880.94;;;26.32;33.10
50518;BME280;37075;44.084;2.962;2023-09-19T13:12:34;97894.56;;;26.30;33.17
50518;BME280;37075;44.084;2.962;2023-09-19T13:15:21;97892.16;;;26.49;33.18
50518;BME280;37075;44.084;2.962;2023-09-19T13:18:11;97878.53;;;26.67;32.85
50518;BME280;37075;44.084;2.962;2023-09-19T13:21:09;97880.03;;;26.88;32.12
50518;BME280;37075;44.084;2.962;2023-09-19T13:24:20;97879.09;;;27.40;32.49
50518;BME280;37075;44.084;2.962;2023-09-19T13:27:08;97884.59;;;27.72;31.60
50518;BME280;37075;44.084;2.962;2023-09-19T13:29:54;97870.06;;;27.90;31.13
50518;BME280;37075;44.084;2.962;2023-09-19T13:32:41;97864.25;;;28.10;31.00
50518;BME280;37075;44.084;2.962;2023-09-19T13:35:28;97866.22;;;28.38;30.43
50518;BME280;37075;44.084;2.962;2023-09-19T13:38:16;97865.84;;;28.74;29.96
50518;BME280;37075;44.084;2.962;2023-09-19T13:41:03;97854.34;;;29.07;30.15
50518;BME280;37075;44.084;2.962;2023-09-19T13:43:49;97858.88;;;29.61;29.74
50518;BME280;37075;44.084;2.962;2023-09-19T13:46:35;97851.47;;;29.98;28.55
50518;BME280;37075;44.084;2.962;2023-09-19T13:49:21;97861.81;;;30.32;28.20
50518;BME280;37075;44.084;2.962;2023-09-19T13:52:08;97847.50;;;30.57;28.08
50518;BME280;37075;44.084;2.962;2023-09-19T13:54:57;97841.03;;;30.79;27.15
50518;BME280;37075;44.084;2.962;2023-09-19T13:57:43;97837.59;;;30.93;27.00
50518;BME280;37075;44.084;2.962;2023-09-19T14:00:29;97834.38;;;31.49;27.85
50518;BME280;37075;44.084;2.962;2023-09-19T14:03:15;97839.94;;;32.04;26.84
50518;BME280;37075;44.084;2.962;2023-09-19T14:06:02;97829.66;;;32.34;25.80
50518;BME280;37075;44.084;2.962;2023-09-19T14:08:49;97839.81;;;32.41;25.74
50518;BME280;37075;44.084;2.962;2023-09-19T14:11:36;97823.28;;;32.58;25.06
50518;BME280;37075;44.084;2.962;2023-09-19T14:14:22;97821.72;;;33.04;24.57
50518;BME280;37075;44.084;2.962;2023-09-19T14:17:08;97820.22;;;33.18;23.65
50518;BME280;37075;44.084;2.962;2023-09-19T14:19:54;97820.56;;;33.35;24.46
50518;BME280;37075;44.084;2.962;2023-09-19T14:22:41;97821.19;;;33.15;23.48
50518;BME280;37075;44.084;2.962;2023-09-19T14:25:27;97821.72;;;33.04;23.46
50518;BME280;37075;44.084;2.962;2023-09-19T14:28:15;97810.25;;;33.32;23.38
50518;BME280;37075;44.084;2.962;2023-09-19T14:31:04;97813.19;;;33.67;23.00
50518;BME280;37075;44.084;2.962;2023-09-19T14:33:55;97807.84;;;33.98;22.31
50518;BME280;37075;44.084;2.962;2023-09-19T14:36:41;97814.38;;;33.75;22.39
50518;BME280;37075;44.084;2.962;2023-09-19T14:39:27;97801.56;;;34.09;22.55
50518;BME280;37075;44.084;2.962;2023-09-19T14:42:13;97813.84;;;34.50;21.94
50518;BME280;37075;44.084;2.962;2023-09-19T14:45:04;97807.84;;;34.83;21.82
50518;BME280;37075;44.084;2.962;2023-09-19T14:47:51;97810.28;;;35.11;21.34
50518;BME280;37075;44.084;2.962;2023-09-19T14:50:39;97810.53;;;35.33;20.52
50518;BME280;37075;44.084;2.962;2023-09-19T14:53:25;97802.47;;;35.26;20.29